Record high temperature 35.7°C Record low temperature -5.3°C Record high gust 54 mph Record high average 35.8 mph Record daily rain 5.08 in. Record low windchill -10.8°C Record high barometer 1045.9 hPa Record low barometer 970.7 hPa
Daily high pressure 1003.7 mb Daily low pressure 991.1 mb Daily low windchill 1.3°C Daily high heat index 10.5°C Daily high gust speed 40.3 mph WSW Daily high average speed 20.3 mph WSW
Forecast: mostly cloudy and cooler. windy
Weather Data
LAST READING AT TIME: 19:30 DATE: 18 January 2018, time of next update: 19:45
Current WeatherNight time/Dry Current Temperature 4.9°C (40.9°F), Apparent temp 2.6°C
Maximum Temperature (since midnight)10.5°C at: 04:58 Minimum Temperature (since midnight)4.9°C at: 19:28
Average windspeed (ten minute)2.9 mph Wind Direction (ten minute)WSW (252°)
Windchill Temperature 2.3°C Maximum Gust (last hour)10 mph at: 19:25
Maximum Gust (since midnight)40 mph at: 05:12 Maximum 1 minute average (since midnight)20.3 mph at: 04:09
Rainfall (last hour)0.00 in. (0.0 mm) Rainfall (since midnight)0.05 in. (1.3 mm) at 17:04
Rainfall This month 2.04 in. (51.9 mm) Rainfall To date this year 2.04 in. (51.9 mm)
Maximum rain per minute (last hour)0.00 in/min Maximum rain per hour (last 6 hours)0.01 in/hour
Yesterdays rainfall 0.04 in DewPoint 2.1°C (Wet Bulb :3.8°C )
Humidity 82 %, Humidex 3.3°C Barometer corrected to msl1003.7 mb
Pressure change +0.6 mb (last hour) Trend (last hour)RISING SLOWLY
Pressure change (last 12 hours)+6.1 mb Pressure change (last 6 hours)+1.8 mb
Current Indoor Temp. 22.2°C
Current Indoor Hum. 44%
Current solar 0 W/Mē Current UV0.0
Maximum solar (since midnight) 411 W/Mē Maximum UV (since midnight)1.1
Current 02:47 hours of sunshine today, current sky: Night time/Dry
Sunshine hours for the year: 15:13 hrs Sunshine hours for the month: 15:13 hrs
Current evapotranspiration 0.05 inches per day. Yesterday's reading 0.04

This page is updated from recent data collected by a DAVIS VANTAGE PRO weather station Use the Reload or Refresh facility on your browser to retrieve the latest data.


Click here for the last 24 hour graph
Click here for the last 48 hour graph
Click here for the last 72 hour graph
Click here for the month to date graph


Weather report/Warning/Metars

London / Gatwick Airport, United Kingdom (EGKK) 51-09N 000-11W 0M
Jan 18, 2018 - 01:50 PM EST / 2018.01.18 1850 UTC
Wind: from the W (260 degrees) at 12 MPH (10 KT):0
Visibility: greater than 7 mile(s):0
Sky conditions: mostly clear
Temperature: 41 F (5 C)
Dew Point: 35 F (2 C)
Relative Humidity: 80%
Pressure (altimeter): 29.65 in. Hg (1004 hPa)
ob: EGKK 181850Z 26010KT 9999 FEW039 05/02 Q1004
cycle: 19
London City Airport, United Kingdom (EGLC) 51-30N 000-30W
Jan 18, 2018 - 01:50 PM EST / 2018.01.18 1850 UTC
Wind: from the W (270 degrees) at 14 MPH (12 KT):0
Visibility: greater than 7 mile(s):0
Sky conditions: mostly cloudy
Temperature: 46 F (8 C)
Dew Point: 33 F (1 C)
Relative Humidity: 61%
Pressure (altimeter): 29.62 in. Hg (1003 hPa)
ob: EGLC 181850Z AUTO 27012KT 9999 BKN041 08/01 Q1003
cycle: 19
London / Heathrow Airport, United Kingdom (EGLL) 51-29N 000-27W 0M
Jan 18, 2018 - 01:50 PM EST / 2018.01.18 1850 UTC
Wind: from the W (270 degrees) at 14 MPH (12 KT):0
Visibility: greater than 7 mile(s):0
Temperature: 41 F (5 C)
Dew Point: 33 F (1 C)
Relative Humidity: 75%
Pressure (altimeter): 29.65 in. Hg (1004 hPa)
ob: EGLL 181850Z AUTO 27012KT 9999 NCD 05/01 Q1004 NOSIG
cycle: 19
Southend-On-Sea , United Kingdom (EGMC) 51-34N 000-42E
Jan 18, 2018 - 01:50 PM EST / 2018.01.18 1850 UTC
Wind: from the W (280 degrees) at 9 MPH (8 KT):0
Visibility: greater than 7 mile(s):0
Sky conditions: mostly clear
Temperature: 41 F (5 C)
Dew Point: 35 F (2 C)
Relative Humidity: 80%
Pressure (altimeter): 29.59 in. Hg (1002 hPa)
ob: EGMC 181850Z 28008KT 9999 FEW020 05/02 Q1002
cycle: 19
Lydd Airport , United Kingdom (EGMD) 50-57N 000-56E
Jan 18, 2018 - 01:50 PM EST / 2018.01.18 1850 UTC
Wind: from the W (270 degrees) at 10 MPH (9 KT):0
Visibility: greater than 7 mile(s):0
Temperature: 41 F (5 C)
Dew Point: 37 F (3 C)
Relative Humidity: 86%
Pressure (altimeter): 29.65 in. Hg (1004 hPa)
ob: EGMD 181850Z AUTO 27009KT 9999 NCD 05/03 Q1004
cycle: 19
Biggin Hill , United Kingdom (EGKB) 51-19N 000-02E
Jan 18, 2018 - 01:50 PM EST / 2018.01.18 1850 UTC
Wind: from the W (260 degrees) at 12 MPH (10 KT) (direction variable):0
Visibility: greater than 7 mile(s):0
Sky conditions: partly cloudy
Weather: Cumulonimbus clouds observed
Temperature: 42 F (6 C)
Dew Point: 35 F (2 C)
Relative Humidity: 75%
Pressure (altimeter): 29.62 in. Hg (1003 hPa)
ob: EGKB 181850Z 26010KT 230V290 9999 SCT030CB 06/02 Q1003 
cycle: 19
Amundsen-Scott South Pole Station, Antarctica (NZSP) 90-00S 00-00E 2835M
Jan 18, 2018 - 12:50 PM EST / 2018.01.18 1750 UTC
Wind: from the ENE (060 degrees) at 9 MPH (8 KT):0
Visibility: greater than 7 mile(s):0
Sky conditions: clear
Temperature: -14 F (-26 C)
Windchill: -32 F (-36 C):2
Pressure (altimeter): 28.56 in. Hg (967 hPa)
ob: NZSP 181750Z 06008KT 9999 SKC M26/ A2856 RMK CLN AIR 07009KT ALL WNDS GRID SDG/HDG
cycle: 18